Iselin, New Jersey
Current Conditions -  °F | °C
As of 8:35 AM on Saturday 25 Oct 2014 (Local Time) from KLDJ Reporting Station
Clear Clear  
Wind Chill: 53°   Ceiling: Unl
Heat Index: 53°   Visibility: 10mi
Dew Point: 38°   Wind: 3mph
Humidity: 57%   Direction: 280°W
Pressure: 29.9"   Gusts: NA
Location:  40.57°N, 74.32°W
Report Text: KLDJ 251235Z AUTO 28003KT 10SM CLR 12/03 A2990 RMK AO2 T01150033
Loading
Personal Weather Stations






























Interactive Weather Map
Tropical Storm Tracking
New forecast layout! Learn more

10-Day Weather Forecast

Advertisements
Track Severe Weather on mobile